sensor_id;sensor_type;location;lat;lon;timestamp;pressure;altitude;pressure_sealevel;temperature;humidity
61318;BME280;47201;40.428;-8.436;2023-04-28T00:00:51;100248.00;;;15.10;100.00
61318;BME280;47201;40.428;-8.436;2023-04-28T00:02:51;100255.72;;;15.18;100.00
61318;BME280;47201;40.428;-8.436;2023-04-28T00:04:53;100260.16;;;15.16;100.00
61318;BME280;47201;40.428;-8.436;2023-04-28T00:06:54;100255.97;;;15.09;100.00
61318;BME280;47201;40.428;-8.436;2023-04-28T00:08:54;100260.50;;;15.03;100.00
61318;BME280;47201;40.428;-8.436;2023-04-28T00:10:55;100266.72;;;14.99;100.00
61318;BME280;47201;40.428;-8.436;2023-04-28T00:12:55;100265.09;;;14.95;100.00
61318;BME280;47201;40.428;-8.436;2023-04-28T00:15:15;100273.91;;;14.94;100.00
61318;BME280;47201;40.428;-8.436;2023-04-28T00:17:33;100269.59;;;14.90;100.00
61318;BME280;47201;40.428;-8.436;2023-04-28T00:19:34;100260.94;;;14.86;100.00
61318;BME280;47201;40.428;-8.436;2023-04-28T00:21:35;100253.09;;;14.85;100.00
61318;BME280;47201;40.428;-8.436;2023-04-28T00:23:35;100253.63;;;14.98;100.00
61318;BME280;47201;40.428;-8.436;2023-04-28T00:25:54;100258.66;;;15.05;100.00
61318;BME280;47201;40.428;-8.436;2023-04-28T00:28:17;100256.50;;;15.21;100.00
61318;BME280;47201;40.428;-8.436;2023-04-28T00:30:18;100243.94;;;15.31;100.00
61318;BME280;47201;40.428;-8.436;2023-04-28T00:32:37;100238.66;;;15.31;100.00
61318;BME280;47201;40.428;-8.436;2023-04-28T00:34:56;100238.66;;;15.31;100.00
61318;BME280;47201;40.428;-8.436;2023-04-28T00:36:57;100238.72;;;15.28;100.00
61318;BME280;47201;40.428;-8.436;2023-04-28T00:39:16;100249.38;;;15.23;100.00
61318;BME280;47201;40.428;-8.436;2023-04-28T00:41:36;100238.09;;;15.20;100.00
61318;BME280;47201;40.428;-8.436;2023-04-28T00:43:46;100235.56;;;15.15;100.00
61318;BME280;47201;40.428;-8.436;2023-04-28T00:45:48;100238.38;;;15.09;100.00
61318;BME280;47201;40.428;-8.436;2023-04-28T00:47:49;100238.44;;;15.07;100.00
61318;BME280;47201;40.428;-8.436;2023-04-28T00:49:49;100239.28;;;15.08;100.00
61318;BME280;47201;40.428;-8.436;2023-04-28T00:51:50;100240.06;;;15.12;100.00
61318;BME280;47201;40.428;-8.436;2023-04-28T00:53:51;100218.09;;;15.13;100.00
61318;BME280;47201;40.428;-8.436;2023-04-28T00:55:51;100207.56;;;15.13;100.00
61318;BME280;47201;40.428;-8.436;2023-04-28T00:58:12;100196.97;;;15.16;100.00
61318;BME280;47201;40.428;-8.436;2023-04-28T01:00:32;100202.94;;;15.21;100.00
61318;BME280;47201;40.428;-8.436;2023-04-28T01:02:33;100199.47;;;15.20;100.00
61318;BME280;47201;40.428;-8.436;2023-04-28T01:04:57;100191.66;;;15.17;100.00
61318;BME280;47201;40.428;-8.436;2023-04-28T01:06:59;100186.44;;;15.16;100.00
61318;BME280;47201;40.428;-8.436;2023-04-28T01:09:00;100176.88;;;15.13;100.00
61318;BME280;47201;40.428;-8.436;2023-04-28T01:11:00;100186.69;;;15.06;100.00
61318;BME280;47201;40.428;-8.436;2023-04-28T01:13:19;100180.78;;;14.98;100.00
61318;BME280;47201;40.428;-8.436;2023-04-28T01:15:20;100186.03;;;14.98;100.00
61318;BME280;47201;40.428;-8.436;2023-04-28T01:17:26;100177.06;;;15.05;100.00
61318;BME280;47201;40.428;-8.436;2023-04-28T01:19:27;100169.91;;;15.11;100.00
61318;BME280;47201;40.428;-8.436;2023-04-28T01:21:32;100177.00;;;15.09;100.00
61318;BME280;47201;40.428;-8.436;2023-04-28T01:23:51;100174.47;;;15.04;100.00
61318;BME280;47201;40.428;-8.436;2023-04-28T01:25:51;100169.91;;;15.11;100.00
61318;BME280;47201;40.428;-8.436;2023-04-28T01:28:10;100168.06;;;15.14;100.00
61318;BME280;47201;40.428;-8.436;2023-04-28T01:30:11;100160.97;;;15.16;100.00
61318;BME280;47201;40.428;-8.436;2023-04-28T01:32:13;100156.72;;;15.12;100.00
61318;BME280;47201;40.428;-8.436;2023-04-28T01:34:13;100156.56;;;15.17;100.00
61318;BME280;47201;40.428;-8.436;2023-04-28T01:36:15;100144.06;;;15.23;100.00
61318;BME280;47201;40.428;-8.436;2023-04-28T01:38:17;100142.41;;;15.21;100.00
61318;BME280;47201;40.428;-8.436;2023-04-28T01:40:17;100138.03;;;15.20;100.00
61318;BME280;47201;40.428;-8.436;2023-04-28T01:42:18;100133.53;;;15.23;100.00
61318;BME280;47201;40.428;-8.436;2023-04-28T01:44:37;100130.13;;;15.20;100.00
61318;BME280;47201;40.428;-8.436;2023-04-28T01:46:37;100130.13;;;15.20;100.00
61318;BME280;47201;40.428;-8.436;2023-04-28T01:48:38;100116.06;;;15.21;100.00
61318;BME280;47201;40.428;-8.436;2023-04-28T01:50:39;100113.34;;;15.24;100.00
61318;BME280;47201;40.428;-8.436;2023-04-28T01:52:40;100105.25;;;15.30;100.00
61318;BME280;47201;40.428;-8.436;2023-04-28T01:54:40;100088.56;;;15.31;100.00
61318;BME280;47201;40.428;-8.436;2023-04-28T01:56:41;100085.09;;;15.29;100.00
61318;BME280;47201;40.428;-8.436;2023-04-28T01:58:42;100074.69;;;15.26;100.00
61318;BME280;47201;40.428;-8.436;2023-04-28T02:00:43;100076.78;;;15.15;100.00
61318;BME280;47201;40.428;-8.436;2023-04-28T02:03:02;100066.75;;;14.98;100.00
61318;BME280;47201;40.428;-8.436;2023-04-28T02:05:22;100065.56;;;14.78;100.00
61318;BME280;47201;40.428;-8.436;2023-04-28T02:07:41;100062.34;;;14.68;100.00
61318;BME280;47201;40.428;-8.436;2023-04-28T02:10:00;100064.28;;;14.62;100.00
61318;BME280;47201;40.428;-8.436;2023-04-28T02:12:02;100068.56;;;14.64;100.00
61318;BME280;47201;40.428;-8.436;2023-04-28T02:14:02;100060.53;;;14.70;100.00
61318;BME280;47201;40.428;-8.436;2023-04-28T02:16:04;100066.56;;;14.74;100.00
61318;BME280;47201;40.428;-8.436;2023-04-28T02:18:04;100063.94;;;14.74;100.00
61318;BME280;47201;40.428;-8.436;2023-04-28T02:20:05;100068.44;;;14.70;100.00
61318;BME280;47201;40.428;-8.436;2023-04-28T02:22:24;100067.59;;;14.68;100.00
61318;BME280;47201;40.428;-8.436;2023-04-28T02:24:43;100069.44;;;14.65;100.00
61318;BME280;47201;40.428;-8.436;2023-04-28T02:26:44;100075.56;;;14.65;100.00
61318;BME280;47201;40.428;-8.436;2023-04-28T02:29:03;100089.63;;;14.64;100.00
61318;BME280;47201;40.428;-8.436;2023-04-28T02:31:06;100083.53;;;14.62;100.00
61318;BME280;47201;40.428;-8.436;2023-04-28T02:33:07;100084.50;;;14.59;100.00
61318;BME280;47201;40.428;-8.436;2023-04-28T02:35:09;100094.09;;;14.60;100.00
61318;BME280;47201;40.428;-8.436;2023-04-28T02:37:28;100094.16;;;14.59;100.00
61318;BME280;47201;40.428;-8.436;2023-04-28T02:39:29;100091.66;;;14.54;100.00
61318;BME280;47201;40.428;-8.436;2023-04-28T02:41:32;100097.09;;;14.48;100.00
61318;BME280;47201;40.428;-8.436;2023-04-28T02:43:52;100101.63;;;14.41;100.00
61318;BME280;47201;40.428;-8.436;2023-04-28T02:45:52;100094.03;;;14.31;100.00
61318;BME280;47201;40.428;-8.436;2023-04-28T02:47:53;100097.69;;;14.25;100.00
61318;BME280;47201;40.428;-8.436;2023-04-28T02:49:53;100100.56;;;14.16;100.00
61318;BME280;47201;40.428;-8.436;2023-04-28T02:51:55;100110.41;;;14.07;100.00
61318;BME280;47201;40.428;-8.436;2023-04-28T02:53:55;100108.88;;;13.99;100.00
61318;BME280;47201;40.428;-8.436;2023-04-28T02:56:15;100105.50;;;13.93;100.00
61318;BME280;47201;40.428;-8.436;2023-04-28T02:58:16;100110.59;;;14.00;100.00
61318;BME280;47201;40.428;-8.436;2023-04-28T03:00:17;100104.56;;;13.96;100.00
61318;BME280;47201;40.428;-8.436;2023-04-28T03:02:21;100117.03;;;13.88;100.00
61318;BME280;47201;40.428;-8.436;2023-04-28T03:04:22;100119.59;;;13.89;100.00
61318;BME280;47201;40.428;-8.436;2023-04-28T03:06:24;100113.66;;;13.83;100.00
61318;BME280;47201;40.428;-8.436;2023-04-28T03:08:24;100117.13;;;13.85;100.00
61318;BME280;47201;40.428;-8.436;2023-04-28T03:10:26;100116.19;;;13.87;100.00
61318;BME280;47201;40.428;-8.436;2023-04-28T03:12:27;100114.50;;;13.83;100.00
61318;BME280;47201;40.428;-8.436;2023-04-28T03:14:27;100116.28;;;13.83;100.00
61318;BME280;47201;40.428;-8.436;2023-04-28T03:16:28;100110.09;;;13.85;100.00
61318;BME280;47201;40.428;-8.436;2023-04-28T03:18:41;100113.50;;;13.89;100.00
61318;BME280;47201;40.428;-8.436;2023-04-28T03:20:42;100110.59;;;14.00;100.00
61318;BME280;47201;40.428;-8.436;2023-04-28T03:22:43;100107.94;;;14.01;100.00
61318;BME280;47201;40.428;-8.436;2023-04-28T03:24:43;100098.84;;;14.15;100.00
61318;BME280;47201;40.428;-8.436;2023-04-28T03:26:44;100104.75;;;14.23;100.00
61318;BME280;47201;40.428;-8.436;2023-04-28T03:28:45;100108.03;;;14.31;100.00
61318;BME280;47201;40.428;-8.436;2023-04-28T03:30:47;100106.16;;;14.36;100.00
61318;BME280;47201;40.428;-8.436;2023-04-28T03:32:48;100100.69;;;14.44;100.00
61318;BME280;47201;40.428;-8.436;2023-04-28T03:35:08;100102.19;;;14.54;100.00
61318;BME280;47201;40.428;-8.436;2023-04-28T03:37:09;100106.25;;;14.66;100.00
61318;BME280;47201;40.428;-8.436;2023-04-28T03:39:10;100109.25;;;14.84;100.00
61318;BME280;47201;40.428;-8.436;2023-04-28T03:41:10;100098.41;;;14.95;100.00
61318;BME280;47201;40.428;-8.436;2023-04-28T03:43:29;100099.94;;;15.03;100.00
61318;BME280;47201;40.428;-8.436;2023-04-28T03:45:43;100095.44;;;15.07;100.00
61318;BME280;47201;40.428;-8.436;2023-04-28T03:47:44;100103.19;;;15.12;100.00
61318;BME280;47201;40.428;-8.436;2023-04-28T03:49:44;100102.19;;;15.16;100.00
61318;BME280;47201;40.428;-8.436;2023-04-28T03:51:46;100095.13;;;15.16;100.00
61318;BME280;47201;40.428;-8.436;2023-04-28T03:53:48;100099.56;;;15.16;100.00
61318;BME280;47201;40.428;-8.436;2023-04-28T03:55:48;100101.38;;;15.14;100.00
61318;BME280;47201;40.428;-8.436;2023-04-28T03:57:49;100100.41;;;15.16;100.00
61318;BME280;47201;40.428;-8.436;2023-04-28T03:59:51;100107.47;;;15.16;100.00
61318;BME280;47201;40.428;-8.436;2023-04-28T04:01:52;100096.78;;;15.20;100.00
61318;BME280;47201;40.428;-8.436;2023-04-28T04:03:53;100101.00;;;15.26;100.00
61318;BME280;47201;40.428;-8.436;2023-04-28T04:05:53;100093.91;;;15.28;100.00
61318;BME280;47201;40.428;-8.436;2023-04-28T04:07:55;100097.38;;;15.30;100.00
61318;BME280;47201;40.428;-8.436;2023-04-28T04:09:56;100100.81;;;15.32;100.00
61318;BME280;47201;40.428;-8.436;2023-04-28T04:11:57;100104.09;;;15.39;100.00
61318;BME280;47201;40.428;-8.436;2023-04-28T04:13:59;100099.72;;;15.39;100.00
61318;BME280;47201;40.428;-8.436;2023-04-28T04:16:00;100096.97;;;15.43;100.00
61318;BME280;47201;40.428;-8.436;2023-04-28T04:18:04;100103.78;;;15.50;100.00
61318;BME280;47201;40.428;-8.436;2023-04-28T04:20:24;100096.78;;;15.49;100.00
61318;BME280;47201;40.428;-8.436;2023-04-28T04:22:25;100098.63;;;15.45;100.00
61318;BME280;47201;40.428;-8.436;2023-04-28T04:24:26;100096.19;;;15.41;100.00
61318;BME280;47201;40.428;-8.436;2023-04-28T04:26:27;100098.19;;;15.32;100.00
61318;BME280;47201;40.428;-8.436;2023-04-28T04:28:28;100101.88;;;15.27;100.00
61318;BME280;47201;40.428;-8.436;2023-04-28T04:30:47;100108.16;;;15.21;100.00
61318;BME280;47201;40.428;-8.436;2023-04-28T04:32:48;100109.91;;;15.22;100.00
61318;BME280;47201;40.428;-8.436;2023-04-28T04:34:49;100115.22;;;15.20;100.00
61318;BME280;47201;40.428;-8.436;2023-04-28T04:36:49;100117.91;;;15.19;100.00
61318;BME280;47201;40.428;-8.436;2023-04-28T04:38:51;100119.72;;;15.17;100.00
61318;BME280;47201;40.428;-8.436;2023-04-28T04:40:55;100127.63;;;15.15;100.00
61318;BME280;47201;40.428;-8.436;2023-04-28T04:42:56;100133.00;;;15.12;100.00
61318;BME280;47201;40.428;-8.436;2023-04-28T04:45:00;100137.50;;;15.09;100.00
61318;BME280;47201;40.428;-8.436;2023-04-28T04:47:03;100146.25;;;15.09;100.00
61318;BME280;47201;40.428;-8.436;2023-04-28T04:49:09;100158.63;;;15.05;100.00
61318;BME280;47201;40.428;-8.436;2023-04-28T04:51:10;100157.91;;;15.00;100.00
61318;BME280;47201;40.428;-8.436;2023-04-28T04:53:10;100166.00;;;14.94;100.00
61318;BME280;47201;40.428;-8.436;2023-04-28T04:55:11;100162.59;;;14.90;100.00
61318;BME280;47201;40.428;-8.436;2023-04-28T04:57:14;100162.59;;;14.90;100.00
61318;BME280;47201;40.428;-8.436;2023-04-28T04:59:50;100166.06;;;14.91;100.00
61318;BME280;47201;40.428;-8.436;2023-04-28T05:01:52;100169.59;;;14.91;100.00
61318;BME280;47201;40.428;-8.436;2023-04-28T05:04:12;100179.16;;;14.94;100.00
61318;BME280;47201;40.428;-8.436;2023-04-28T05:06:12;100180.00;;;14.95;100.00
61318;BME280;47201;40.428;-8.436;2023-04-28T05:08:19;100191.34;;;14.97;100.00
61318;BME280;47201;40.428;-8.436;2023-04-28T05:10:19;100197.47;;;14.97;100.00
61318;BME280;47201;40.428;-8.436;2023-04-28T05:12:20;100204.53;;;14.97;100.00
61318;BME280;47201;40.428;-8.436;2023-04-28T05:14:21;100214.22;;;14.95;100.00
61318;BME280;47201;40.428;-8.436;2023-04-28T05:16:21;100216.06;;;14.91;100.00
61318;BME280;47201;40.428;-8.436;2023-04-28T05:18:35;100226.59;;;14.91;100.00
61318;BME280;47201;40.428;-8.436;2023-04-28T05:20:53;100236.28;;;14.90;100.00
61318;BME280;47201;40.428;-8.436;2023-04-28T05:22:54;100236.22;;;14.92;100.00
61318;BME280;47201;40.428;-8.436;2023-04-28T05:24:55;100231.00;;;14.90;100.00
61318;BME280;47201;40.428;-8.436;2023-04-28T05:26:57;100245.91;;;14.90;100.00
61318;BME280;47201;40.428;-8.436;2023-04-28T05:28:58;100245.00;;;14.91;100.00
61318;BME280;47201;40.428;-8.436;2023-04-28T05:30:59;100238.13;;;14.87;100.00
61318;BME280;47201;40.428;-8.436;2023-04-28T05:33:18;100240.81;;;14.85;100.00
61318;BME280;47201;40.428;-8.436;2023-04-28T05:35:21;100235.41;;;14.90;100.00
61318;BME280;47201;40.428;-8.436;2023-04-28T05:37:40;100238.97;;;14.89;100.00
61318;BME280;47201;40.428;-8.436;2023-04-28T05:39:43;100245.91;;;14.90;100.00
61318;BME280;47201;40.428;-8.436;2023-04-28T05:41:44;100236.22;;;14.92;100.00
61318;BME280;47201;40.428;-8.436;2023-04-28T05:43:45;100223.06;;;14.92;100.00
61318;BME280;47201;40.428;-8.436;2023-04-28T05:45:47;100200.38;;;14.88;100.00
61318;BME280;47201;40.428;-8.436;2023-04-28T05:47:47;100208.28;;;14.88;100.00
61318;BME280;47201;40.428;-8.436;2023-04-28T05:49:48;100225.81;;;14.87;100.00
61318;BME280;47201;40.428;-8.436;2023-04-28T05:51:48;100231.00;;;14.90;100.00
61318;BME280;47201;40.428;-8.436;2023-04-28T05:53:49;100214.22;;;14.95;100.00
61318;BME280;47201;40.428;-8.436;2023-04-28T05:55:50;100201.59;;;15.07;100.00
61318;BME280;47201;40.428;-8.436;2023-04-28T05:57:53;100203.97;;;15.15;100.00
61318;BME280;47201;40.428;-8.436;2023-04-28T05:59:55;100206.41;;;15.23;100.00
61318;BME280;47201;40.428;-8.436;2023-04-28T06:02:14;100206.19;;;15.31;100.00
61318;BME280;47201;40.428;-8.436;2023-04-28T06:04:33;100216.94;;;15.23;100.00
61318;BME280;47201;40.428;-8.436;2023-04-28T06:06:52;100222.13;;;15.26;100.00
61318;BME280;47201;40.428;-8.436;2023-04-28T06:08:54;100231.59;;;15.32;100.00
61318;BME280;47201;40.428;-8.436;2023-04-28T06:10:55;100246.50;;;15.33;100.00
61318;BME280;47201;40.428;-8.436;2023-04-28T06:12:57;100249.25;;;15.30;100.00
61318;BME280;47201;40.428;-8.436;2023-04-28T06:14:57;100235.97;;;15.33;100.00
61318;BME280;47201;40.428;-8.436;2023-04-28T06:16:59;100234.16;;;15.35;100.00
61318;BME280;47201;40.428;-8.436;2023-04-28T06:19:00;100239.31;;;15.38;100.00
61318;BME280;47201;40.428;-8.436;2023-04-28T06:21:20;100255.09;;;15.39;100.00
61318;BME280;47201;40.428;-8.436;2023-04-28T06:23:20;100256.84;;;15.41;100.00
61318;BME280;47201;40.428;-8.436;2023-04-28T06:25:22;100255.88;;;15.43;100.00
61318;BME280;47201;40.428;-8.436;2023-04-28T06:27:23;100262.78;;;15.47;100.00
61318;BME280;47201;40.428;-8.436;2023-04-28T06:29:24;100261.72;;;15.53;100.00
61318;BME280;47201;40.428;-8.436;2023-04-28T06:31:24;100261.66;;;15.56;100.00
61318;BME280;47201;40.428;-8.436;2023-04-28T06:33:44;100265.09;;;15.58;100.00
61318;BME280;47201;40.428;-8.436;2023-04-28T06:35:45;100264.19;;;15.59;100.00
61318;BME280;47201;40.428;-8.436;2023-04-28T06:37:46;100270.28;;;15.61;100.00
61318;BME280;47201;40.428;-8.436;2023-04-28T06:39:48;100277.16;;;15.65;100.00
61318;BME280;47201;40.428;-8.436;2023-04-28T06:41:49;100288.66;;;15.63;100.00
61318;BME280;47201;40.428;-8.436;2023-04-28T06:44:09;100298.34;;;15.62;100.00
61318;BME280;47201;40.428;-8.436;2023-04-28T06:46:10;100293.09;;;15.62;100.00
61318;BME280;47201;40.428;-8.436;2023-04-28T06:48:29;100284.09;;;15.69;100.00
61318;BME280;47201;40.428;-8.436;2023-04-28T06:50:47;100283.31;;;15.66;100.00
61318;BME280;47201;40.428;-8.436;2023-04-28T06:52:48;100284.09;;;15.69;100.00
61318;BME280;47201;40.428;-8.436;2023-04-28T06:54:49;100293.53;;;15.77;100.00
61318;BME280;47201;40.428;-8.436;2023-04-28T06:56:51;100300.34;;;15.85;100.00
61318;BME280;47201;40.428;-8.436;2023-04-28T06:59:10;100301.75;;;15.97;100.00
61318;BME280;47201;40.428;-8.436;2023-04-28T07:01:29;100310.50;;;15.98;100.00
61318;BME280;47201;40.428;-8.436;2023-04-28T07:03:48;100317.50;;;15.99;100.00
61318;BME280;47201;40.428;-8.436;2023-04-28T07:05:49;100322.59;;;16.05;100.00
61318;BME280;47201;40.428;-8.436;2023-04-28T07:07:49;100320.88;;;16.04;100.00
61318;BME280;47201;40.428;-8.436;2023-04-28T07:09:50;100322.91;;;15.94;100.00
61318;BME280;47201;40.428;-8.436;2023-04-28T07:11:52;100332.47;;;15.98;100.00
61318;BME280;47201;40.428;-8.436;2023-04-28T07:13:52;100338.59;;;15.99;100.00
61318;BME280;47201;40.428;-8.436;2023-04-28T07:15:53;100348.19;;;16.01;100.00
61318;BME280;47201;40.428;-8.436;2023-04-28T07:17:54;100346.47;;;16.00;100.00
61318;BME280;47201;40.428;-8.436;2023-04-28T07:19:54;100356.00;;;16.05;100.00
61318;BME280;47201;40.428;-8.436;2023-04-28T07:21:55;100363.84;;;16.08;100.00
61318;BME280;47201;40.428;-8.436;2023-04-28T07:23:55;100359.34;;;16.11;100.00
61318;BME280;47201;40.428;-8.436;2023-04-28T07:26:14;100368.03;;;16.15;100.00
61318;BME280;47201;40.428;-8.436;2023-04-28T07:28:16;100369.63;;;16.19;100.00
61318;BME280;47201;40.428;-8.436;2023-04-28T07:30:17;100366.47;;;16.36;100.00
61318;BME280;47201;40.428;-8.436;2023-04-28T07:32:17;100369.59;;;16.49;100.00
61318;BME280;47201;40.428;-8.436;2023-04-28T07:34:18;100380.53;;;16.65;100.00
61318;BME280;47201;40.428;-8.436;2023-04-28T07:36:19;100393.06;;;16.85;100.00
61318;BME280;47201;40.428;-8.436;2023-04-28T07:38:20;100394.44;;;16.99;100.00
61318;BME280;47201;40.428;-8.436;2023-04-28T07:40:20;100400.44;;;17.04;100.00
61318;BME280;47201;40.428;-8.436;2023-04-28T07:42:21;100406.41;;;17.09;100.00
61318;BME280;47201;40.428;-8.436;2023-04-28T07:44:22;100413.28;;;17.15;100.00
61318;BME280;47201;40.428;-8.436;2023-04-28T07:46:22;100427.25;;;17.18;100.00
61318;BME280;47201;40.428;-8.436;2023-04-28T07:48:23;100423.47;;;17.25;100.00
61318;BME280;47201;40.428;-8.436;2023-04-28T07:50:23;100429.25;;;17.37;100.00
61318;BME280;47201;40.428;-8.436;2023-04-28T07:52:24;100427.13;;;17.48;100.00
61318;BME280;47201;40.428;-8.436;2023-04-28T07:54:25;100431.50;;;17.49;100.00
61318;BME280;47201;40.428;-8.436;2023-04-28T07:56:25;100429.38;;;17.59;100.00
61318;BME280;47201;40.428;-8.436;2023-04-28T07:58:26;100427.69;;;17.82;100.00
61318;BME280;47201;40.428;-8.436;2023-04-28T08:00:45;100433.78;;;18.09;100.00
61318;BME280;47201;40.428;-8.436;2023-04-28T08:02:46;100429.38;;;18.32;100.00
61318;BME280;47201;40.428;-8.436;2023-04-28T08:04:46;100433.16;;;18.48;100.00
61318;BME280;47201;40.428;-8.436;2023-04-28T08:06:47;100446.38;;;18.50;100.00
61318;BME280;47201;40.428;-8.436;2023-04-28T08:08:47;100440.66;;;18.61;100.00
61318;BME280;47201;40.428;-8.436;2023-04-28T08:10:48;100443.22;;;18.62;100.00
61318;BME280;47201;40.428;-8.436;2023-04-28T08:12:49;100443.09;;;18.65;100.00
61318;BME280;47201;40.428;-8.436;2023-04-28T08:15:09;100442.91;;;18.70;100.00
61318;BME280;47201;40.428;-8.436;2023-04-28T08:17:09;100440.06;;;18.76;100.00
61318;BME280;47201;40.428;-8.436;2023-04-28T08:19:10;100438.50;;;18.93;100.00
61318;BME280;47201;40.428;-8.436;2023-04-28T08:21:11;100437.13;;;19.06;100.00
61318;BME280;47201;40.428;-8.436;2023-04-28T08:23:11;100434.97;;;19.14;100.00
61318;BME280;47201;40.428;-8.436;2023-04-28T08:25:12;100442.56;;;19.24;100.00
61318;BME280;47201;40.428;-8.436;2023-04-28T08:27:12;100442.25;;;19.52;100.00
61318;BME280;47201;40.428;-8.436;2023-04-28T08:29:31;100446.69;;;19.72;100.00
61318;BME280;47201;40.428;-8.436;2023-04-28T08:31:32;100450.63;;;20.03;100.00
61318;BME280;47201;40.428;-8.436;2023-04-28T08:33:32;100458.38;;;20.28;100.00
61318;BME280;47201;40.428;-8.436;2023-04-28T08:35:33;100452.91;;;20.51;100.00
61318;BME280;47201;40.428;-8.436;2023-04-28T08:37:35;100450.09;;;20.92;100.00
61318;BME280;47201;40.428;-8.436;2023-04-28T08:39:54;100463.50;;;21.43;100.00
61318;BME280;47201;40.428;-8.436;2023-04-28T08:42:04;100470.19;;;22.03;100.00
61318;BME280;47201;40.428;-8.436;2023-04-28T08:44:07;100464.75;;;22.38;93.96
61318;BME280;47201;40.428;-8.436;2023-04-28T08:46:09;100471.31;;;22.64;88.23
61318;BME280;47201;40.428;-8.436;2023-04-28T08:48:19;100474.25;;;22.44;88.66
61318;BME280;47201;40.428;-8.436;2023-04-28T08:50:20;100470.97;;;22.39;89.99
61318;BME280;47201;40.428;-8.436;2023-04-28T08:52:22;100471.66;;;22.42;90.60
61318;BME280;47201;40.428;-8.436;2023-04-28T08:54:23;100485.34;;;22.18;88.17
61318;BME280;47201;40.428;-8.436;2023-04-28T08:56:28;100494.94;;;21.87;89.85
61318;BME280;47201;40.428;-8.436;2023-04-28T08:58:31;100497.19;;;22.46;86.85
61318;BME280;47201;40.428;-8.436;2023-04-28T09:00:31;100493.97;;;23.97;79.79
61318;BME280;47201;40.428;-8.436;2023-04-28T09:02:32;100498.31;;;25.12;68.65
61318;BME280;47201;40.428;-8.436;2023-04-28T09:04:34;100491.53;;;25.06;70.10
61318;BME280;47201;40.428;-8.436;2023-04-28T09:06:36;100500.00;;;24.85;70.35
61318;BME280;47201;40.428;-8.436;2023-04-28T09:08:36;100499.66;;;24.48;70.83
61318;BME280;47201;40.428;-8.436;2023-04-28T09:10:37;100512.38;;;24.45;72.76
61318;BME280;47201;40.428;-8.436;2023-04-28T09:12:37;100505.38;;;24.98;69.59
61318;BME280;47201;40.428;-8.436;2023-04-28T09:14:59;100499.06;;;25.54;66.90
61318;BME280;47201;40.428;-8.436;2023-04-28T09:17:11;100506.13;;;25.42;66.18
61318;BME280;47201;40.428;-8.436;2023-04-28T09:19:12;100501.06;;;25.10;66.05
61318;BME280;47201;40.428;-8.436;2023-04-28T09:21:15;100495.56;;;24.99;66.70
61318;BME280;47201;40.428;-8.436;2023-04-28T09:23:17;100499.00;;;25.01;67.44
61318;BME280;47201;40.428;-8.436;2023-04-28T09:25:19;100498.78;;;25.85;65.06
61318;BME280;47201;40.428;-8.436;2023-04-28T09:27:27;100509.59;;;27.22;59.08
61318;BME280;47201;40.428;-8.436;2023-04-28T09:31:51;100517.06;;;31.41;47.65
61318;BME280;47201;40.428;-8.436;2023-04-28T09:33:56;100525.25;;;32.64;44.13
61318;BME280;47201;40.428;-8.436;2023-04-28T09:35:57;100539.19;;;32.69;44.34
61318;BME280;47201;40.428;-8.436;2023-04-28T09:38:17;100545.03;;;31.60;47.63
61318;BME280;47201;40.428;-8.436;2023-04-28T09:40:18;100546.63;;;30.73;49.09
61318;BME280;47201;40.428;-8.436;2023-04-28T09:42:35;100554.41;;;30.35;52.03
61318;BME280;47201;40.428;-8.436;2023-04-28T09:44:36;100532.50;;;31.59;50.41
61318;BME280;47201;40.428;-8.436;2023-04-28T09:46:37;100534.34;;;33.19;47.81
61318;BME280;47201;40.428;-8.436;2023-04-28T09:48:59;100534.44;;;34.16;45.45
61318;BME280;47201;40.428;-8.436;2023-04-28T09:51:06;100538.84;;;34.17;46.96
61318;BME280;47201;40.428;-8.436;2023-04-28T09:53:07;100535.53;;;34.31;48.63
61318;BME280;47201;40.428;-8.436;2023-04-28T09:55:12;100534.97;;;33.13;52.85
61318;BME280;47201;40.428;-8.436;2023-04-28T09:57:12;100533.34;;;33.38;54.24
61318;BME280;47201;40.428;-8.436;2023-04-28T09:59:16;100527.94;;;32.92;55.86
61318;BME280;47201;40.428;-8.436;2023-04-28T10:01:17;100528.81;;;32.93;57.68
61318;BME280;47201;40.428;-8.436;2023-04-28T10:03:20;100534.03;;;33.58;56.56
61318;BME280;47201;40.428;-8.436;2023-04-28T10:05:20;100526.41;;;34.06;56.25
61318;BME280;47201;40.428;-8.436;2023-04-28T10:07:22;100528.81;;;34.44;55.54
61318;BME280;47201;40.428;-8.436;2023-04-28T10:09:22;100535.19;;;35.70;53.19
61318;BME280;47201;40.428;-8.436;2023-04-28T10:11:25;100532.47;;;35.62;53.54
61318;BME280;47201;40.428;-8.436;2023-04-28T10:13:26;100538.56;;;35.88;53.89
61318;BME280;47201;40.428;-8.436;2023-04-28T10:15:27;100535.88;;;35.64;55.70
61318;BME280;47201;40.428;-8.436;2023-04-28T10:17:27;100535.06;;;36.28;55.02
61318;BME280;47201;40.428;-8.436;2023-04-28T10:19:28;100541.41;;;36.20;56.71
61318;BME280;47201;40.428;-8.436;2023-04-28T10:21:29;100538.13;;;36.33;57.58
61318;BME280;47201;40.428;-8.436;2023-04-28T10:25:59;100538.09;;;35.68;60.58
61318;BME280;47201;40.428;-8.436;2023-04-28T10:28:03;100533.16;;;35.47;61.96
61318;BME280;47201;40.428;-8.436;2023-04-28T10:30:21;100529.41;;;35.40;62.68
61318;BME280;47201;40.428;-8.436;2023-04-28T10:32:42;100535.25;;;34.43;65.43
61318;BME280;47201;40.428;-8.436;2023-04-28T10:34:42;100529.75;;;35.53;63.33
61318;BME280;47201;40.428;-8.436;2023-04-28T10:36:51;100539.94;;;35.60;63.73
61318;BME280;47201;40.428;-8.436;2023-04-28T10:39:06;100535.72;;;36.38;63.62
61318;BME280;47201;40.428;-8.436;2023-04-28T10:41:07;100525.31;;;35.69;64.10
61318;BME280;47201;40.428;-8.436;2023-04-28T10:47:58;100545.03;;;34.70;67.30